Time;durP1;ratioP1;P1;durP2;ratioP2;P2;SDS_P1;SDS_P2;PMS_P1;PMS_P2;Temp;Humidity;BMP_temperature;BMP_pressure;BME280_temperature;BME280_humidity;BME280_pressure;Samples;Min_cycle;Max_cycle;Signal;HPM_P1;HPM_P2
2023/01/17 00:02:15;;;;;;;3.67;0.20;;;3.90;99.90;;;;;;5010871;28;20048;-72
2023/01/17 00:10:16;;;;;;;3.72;0.65;;;3.80;99.90;;;;;;5002080;28;20045;-71
2023/01/17 00:12:51;;;;;;;0.47;0.10;;;3.70;99.90;;;;;;5007733;28;20080;-72
2023/01/17 00:15:18;;;;;;;0.20;0.10;;;3.60;99.90;;;;;;5009657;28;20041;-72
2023/01/17 00:17:45;;;;;;;0.05;0.00;;;3.50;99.90;;;;;;5007669;28;20049;-72
2023/01/17 00:26:04;;;;;;;0.80;0.10;;;3.00;99.90;;;;;;5015974;28;20362;-72
2023/01/17 01:35:24;;;;;;;1.30;0.20;;;2.00;99.90;;;;;;5006294;28;20080;-72
2023/01/17 01:37:50;;;;;;;5.57;0.50;;;2.00;99.90;;;;;;5007226;28;20026;-72
2023/01/17 01:40:18;;;;;;;0.20;0.10;;;2.00;99.90;;;;;;5008075;28;20026;-72
2023/01/17 01:42:53;;;;;;;2.85;0.32;;;2.00;99.90;;;;;;5007354;28;20776;-71
2023/01/17 01:45:22;;;;;;;0.93;0.52;;;2.10;99.90;;;;;;5008197;28;20048;-72
2023/01/17 01:47:50;;;;;;;3.33;0.10;;;2.10;99.90;;;;;;5007590;28;20446;-73
2023/01/17 01:50:19;;;;;;;2.70;0.20;;;2.20;99.90;;;;;;5007608;28;20026;-72
2023/01/17 01:52:49;;;;;;;1.85;0.35;;;2.30;99.90;;;;;;5007050;28;20049;-71
2023/01/17 01:55:25;;;;;;;7.10;1.00;;;2.40;99.90;;;;;;5008241;28;20041;-72
2023/01/17 01:57:54;;;;;;;3.85;0.30;;;2.40;99.90;;;;;;5007086;28;20154;-72
2023/01/17 02:00:25;;;;;;;4.55;0.50;;;2.50;99.90;;;;;;5006555;28;20037;-72
2023/01/17 02:02:53;;;;;;;4.47;0.82;;;2.50;99.90;;;;;;5006259;28;20025;-72
2023/01/17 02:05:20;;;;;;;2.53;0.40;;;2.50;99.90;;;;;;5005423;28;20388;-72
2023/01/17 02:08:07;;;;;;;4.18;0.40;;;2.50;99.90;;;;;;5005685;28;20029;-72
2023/01/17 02:10:34;;;;;;;2.78;0.50;;;2.60;99.90;;;;;;5001213;28;20042;-72
2023/01/17 02:13:01;;;;;;;4.68;0.45;;;2.60;99.90;;;;;;5006919;28;20026;-72
2023/01/17 02:15:38;;;;;;;3.75;0.30;;;2.50;99.90;;;;;;5006322;28;20068;-73
2023/01/17 02:18:28;;;;;;;5.45;0.57;;;2.60;99.90;;;;;;5004364;28;20026;-72
2023/01/17 02:21:30;;;;;;;5.47;0.57;;;2.60;99.90;;;;;;5007083;28;20045;-71
2023/01/17 02:24:38;;;;;;;5.22;0.22;;;2.60;99.90;;;;;;4993351;28;20040;-72
2023/01/17 02:27:12;;;;;;;2.88;0.50;;;2.60;99.90;;;;;;5003886;28;20045;-72
2023/01/17 02:30:15;;;;;;;5.13;0.70;;;2.60;99.90;;;;;;5007997;28;20457;-71
2023/01/17 02:32:43;;;;;;;3.80;0.17;;;2.50;99.90;;;;;;5000803;28;20441;-72
2023/01/17 02:35:31;;;;;;;5.78;1.05;;;2.40;99.90;;;;;;5007235;28;20034;-72
2023/01/17 02:38:21;;;;;;;2.50;0.30;;;2.40;99.90;;;;;;5006784;28;20026;-72
2023/01/17 02:40:56;;;;;;;8.85;0.38;;;2.30;99.90;;;;;;5021300;28;20038;-73
2023/01/17 02:43:23;;;;;;;7.45;0.30;;;2.20;99.90;;;;;;5003286;28;20397;-72
2023/01/17 02:45:49;;;;;;;2.10;0.35;;;2.10;99.90;;;;;;5001234;28;20037;-72
2023/01/17 02:48:18;;;;;;;2.92;0.38;;;2.10;99.90;;;;;;5006506;28;20041;-72
2023/01/17 02:51:01;;;;;;;4.28;0.70;;;2.00;99.90;;;;;;5005095;28;20121;-72
2023/01/17 02:53:54;;;;;;;4.70;0.43;;;2.00;99.90;;;;;;5007122;28;20060;-73
2023/01/17 02:56:39;;;;;;;4.18;0.28;;;1.90;99.90;;;;;;5007319;28;20129;-74
2023/01/17 02:59:17;;;;;;;7.05;0.57;;;1.90;99.90;;;;;;5019167;28;20068;-72
2023/01/17 03:02:04;;;;;;;4.03;0.30;;;1.90;99.90;;;;;;5005421;28;20074;-72
2023/01/17 03:04:46;;;;;;;5.45;0.50;;;1.80;99.90;;;;;;5006157;28;20037;-73
2023/01/17 03:07:16;;;;;;;4.25;0.50;;;1.80;99.90;;;;;;5009537;28;20168;-71
2023/01/17 03:09:44;;;;;;;7.25;0.38;;;1.80;99.90;;;;;;5011472;28;20658;-73
2023/01/17 03:12:11;;;;;;;4.85;0.20;;;1.80;99.90;;;;;;5008982;28;20034;-72
2023/01/17 03:14:36;;;;;;;2.53;0.55;;;1.80;99.90;;;;;;5011467;28;20038;-73
2023/01/17 03:17:02;;;;;;;4.15;0.20;;;1.80;99.90;;;;;;5010377;28;20044;-74
2023/01/17 03:19:28;;;;;;;4.90;0.20;;;1.70;99.90;;;;;;5012148;28;20453;-73
2023/01/17 03:21:54;;;;;;;6.43;1.05;;;1.70;99.90;;;;;;5013665;28;20052;-71
2023/01/17 03:24:19;;;;;;;5.10;0.52;;;1.70;99.90;;;;;;5029476;28;20046;-73
2023/01/17 03:26:46;;;;;;;6.18;0.93;;;1.70;99.90;;;;;;5010963;28;20084;-73
2023/01/17 03:29:13;;;;;;;4.13;0.52;;;1.60;99.90;;;;;;5009871;28;20053;-74
2023/01/17 03:31:39;;;;;;;4.13;0.22;;;1.60;99.90;;;;;;5011323;28;20125;-72
2023/01/17 03:34:04;;;;;;;4.25;0.43;;;1.60;99.90;;;;;;5009945;28;20113;-72
2023/01/17 03:36:30;;;;;;;5.15;0.35;;;1.60;99.90;;;;;;4996061;28;20042;-72
2023/01/17 03:38:56;;;;;;;3.47;0.20;;;1.60;99.90;;;;;;5007821;28;20494;-72
2023/01/17 03:41:21;;;;;;;5.10;0.30;;;1.60;99.90;;;;;;5009952;28;20479;-72
2023/01/17 03:43:47;;;;;;;8.27;0.70;;;1.60;99.90;;;;;;5009684;28;20034;-72
2023/01/17 03:46:22;;;;;;;3.58;0.55;;;1.70;99.90;;;;;;5010732;28;20038;-74
2023/01/17 03:48:48;;;;;;;3.03;0.30;;;1.80;99.90;;;;;;5010240;28;20473;-72
2023/01/17 03:51:14;;;;;;;2.88;0.30;;;1.90;99.90;;;;;;5009891;28;20121;-72
2023/01/17 03:53:40;;;;;;;7.88;0.52;;;1.90;99.90;;;;;;5010341;28;20125;-72
2023/01/17 03:56:06;;;;;;;4.20;0.60;;;2.00;99.90;;;;;;5013297;28;20835;-72
2023/01/17 03:58:32;;;;;;;1.25;0.20;;;2.00;99.90;;;;;;5010854;28;20045;-72
2023/01/17 04:00:58;;;;;;;5.80;0.25;;;2.00;99.90;;;;;;5008884;28;20054;-72
2023/01/17 04:03:23;;;;;;;4.03;0.68;;;2.10;99.90;;;;;;5010578;28;20034;-71
2023/01/17 04:05:49;;;;;;;7.47;0.38;;;2.10;99.90;;;;;;5006647;28;20124;-72
2023/01/17 04:08:14;;;;;;;4.35;0.52;;;2.10;99.90;;;;;;5008713;28;20037;-72
2023/01/17 04:10:40;;;;;;;5.03;0.77;;;2.10;99.90;;;;;;5010781;28;20128;-72
2023/01/17 04:13:05;;;;;;;5.32;0.20;;;2.00;99.90;;;;;;5007918;28;20030;-72
2023/01/17 04:15:32;;;;;;;7.22;0.57;;;2.00;99.90;;;;;;5010269;28;20406;-72
2023/01/17 04:17:58;;;;;;;1.60;0.30;;;1.90;99.90;;;;;;5013472;28;20025;-72
2023/01/17 04:20:35;;;;;;;1.73;0.20;;;1.90;99.90;;;;;;5012021;28;20196;-74
2023/01/17 04:23:01;;;;;;;1.85;0.30;;;1.80;99.90;;;;;;5009981;28;20792;-72
2023/01/17 04:25:29;;;;;;;2.50;0.10;;;1.80;99.90;;;;;;5011058;28;20026;-71
2023/01/17 04:27:55;;;;;;;6.28;0.82;;;1.80;99.90;;;;;;5009313;28;20026;-71
2023/01/17 04:30:21;;;;;;;3.17;0.30;;;1.80;99.90;;;;;;5009490;28;20227;-70
2023/01/17 04:32:47;;;;;;;3.05;0.30;;;1.80;99.90;;;;;;5009967;28;20331;-72
2023/01/17 04:35:12;;;;;;;3.03;0.20;;;1.70;99.90;;;;;;5011026;28;20030;-71
2023/01/17 04:37:38;;;;;;;3.95;0.22;;;1.70;99.90;;;;;;5008276;28;20124;-72
2023/01/17 04:40:05;;;;;;;3.50;0.63;;;1.60;99.90;;;;;;5008911;28;20452;-71
2023/01/17 04:42:30;;;;;;;1.67;0.20;;;1.60;99.90;;;;;;5009903;28;20029;-72
2023/01/17 04:44:56;;;;;;;3.50;0.10;;;1.60;99.90;;;;;;5008863;28;20041;-72
2023/01/17 04:47:22;;;;;;;4.03;0.52;;;1.60;99.90;;;;;;5008554;28;20033;-71
2023/01/17 04:49:48;;;;;;;9.25;1.35;;;1.50;99.90;;;;;;5009071;28;20110;-72
2023/01/17 04:52:14;;;;;;;4.93;0.68;;;1.50;99.90;;;;;;5010081;28;20065;-72
2023/01/17 04:54:40;;;;;;;2.38;0.20;;;1.50;99.90;;;;;;5007562;28;20067;-72
2023/01/17 04:57:05;;;;;;;4.80;0.32;;;1.50;99.90;;;;;;5007814;28;20113;-73
2023/01/17 04:59:31;;;;;;;4.55;0.22;;;1.50;99.90;;;;;;5007970;28;20550;-72
2023/01/17 05:01:57;;;;;;;1.25;0.20;;;1.40;99.90;;;;;;5007374;28;20173;-73
2023/01/17 05:04:22;;;;;;;3.85;0.45;;;1.40;99.90;;;;;;5012979;28;20057;-72
2023/01/17 05:06:48;;;;;;;2.72;0.65;;;1.40;99.90;;;;;;5008845;28;20115;-72
2023/01/17 05:09:14;;;;;;;2.75;0.55;;;1.40;99.90;;;;;;5007941;28;20044;-72
2023/01/17 05:11:39;;;;;;;5.72;0.47;;;1.30;99.90;;;;;;5008068;28;20172;-71
2023/01/17 05:14:05;;;;;;;4.35;0.57;;;1.30;99.90;;;;;;5006929;28;20034;-72
2023/01/17 05:16:30;;;;;;;3.60;0.28;;;1.30;99.90;;;;;;5009476;28;20033;-73
2023/01/17 05:18:56;;;;;;;1.42;0.15;;;1.40;99.90;;;;;;5008381;28;20037;-72
2023/01/17 05:21:22;;;;;;;4.82;0.40;;;1.40;99.90;;;;;;5008083;28;20545;-73
2023/01/17 05:23:48;;;;;;;7.07;0.50;;;1.50;99.90;;;;;;5022902;28;20062;-72
2023/01/17 05:26:13;;;;;;;6.20;0.50;;;1.60;99.90;;;;;;5012822;28;20038;-72
2023/01/17 05:28:39;;;;;;;0.57;0.10;;;1.70;99.90;;;;;;5007535;28;20030;-72
2023/01/17 05:31:04;;;;;;;5.63;0.75;;;1.70;99.90;;;;;;5007464;28;20042;-72
2023/01/17 05:33:30;;;;;;;3.53;0.40;;;1.60;99.90;;;;;;5002279;28;20038;-73
2023/01/17 05:35:56;;;;;;;8.73;1.00;;;1.60;99.90;;;;;;5003329;28;20552;-72
2023/01/17 05:38:22;;;;;;;3.00;0.30;;;1.60;99.90;;;;;;5005610;28;20037;-71
2023/01/17 05:40:48;;;;;;;3.22;0.52;;;1.50;99.90;;;;;;4993277;28;20084;-72
2023/01/17 05:43:14;;;;;;;10.13;0.63;;;1.50;99.90;;;;;;5007706;28;20053;-71
2023/01/17 05:45:40;;;;;;;3.28;1.08;;;1.50;99.90;;;;;;5000097;28;20068;-73
2023/01/17 05:48:05;;;;;;;2.78;0.50;;;1.40;99.90;;;;;;4997718;28;20049;-73
2023/01/17 05:50:34;;;;;;;1.13;0.63;;;1.40;99.90;;;;;;5007108;28;20044;-72
2023/01/17 05:53:12;;;;;;;2.45;0.60;;;1.40;99.90;;;;;;5008424;28;20430;-73
2023/01/17 05:55:38;;;;;;;3.40;0.30;;;1.40;99.90;;;;;;5013905;28;20022;-72
2023/01/17 05:58:04;;;;;;;7.93;0.65;;;1.30;99.90;;;;;;5010988;28;20741;-72
2023/01/17 06:00:30;;;;;;;4.15;0.43;;;1.30;99.90;;;;;;5008143;28;20041;-73
2023/01/17 06:02:57;;;;;;;9.07;0.50;;;1.30;99.90;;;;;;5001679;28;20038;-72
2023/01/17 06:05:24;;;;;;;4.40;0.47;;;1.30;99.90;;;;;;4996198;28;20033;-72
2023/01/17 06:07:50;;;;;;;3.70;0.47;;;1.30;99.90;;;;;;4992855;28;20035;-72
2023/01/17 06:10:18;;;;;;;4.70;0.50;;;1.20;99.90;;;;;;5004066;28;20034;-72
2023/01/17 06:12:45;;;;;;;5.25;0.70;;;1.20;99.90;;;;;;4994274;28;20031;-72
2023/01/17 06:15:12;;;;;;;2.60;0.40;;;1.20;99.90;;;;;;4997652;28;20851;-73
2023/01/17 06:17:37;;;;;;;6.43;0.85;;;1.20;99.90;;;;;;4999402;28;20091;-73
2023/01/17 06:20:04;;;;;;;6.78;0.50;;;1.20;99.90;;;;;;4994898;28;20027;-72
2023/01/17 06:22:31;;;;;;;4.85;0.45;;;1.20;99.90;;;;;;5006078;28;20038;-72
2023/01/17 06:24:56;;;;;;;2.25;0.38;;;1.10;99.90;;;;;;4985149;28;20035;-71
2023/01/17 06:27:22;;;;;;;6.35;0.93;;;1.10;99.90;;;;;;5001882;28;20398;-72
2023/01/17 06:29:47;;;;;;;3.88;0.60;;;1.00;99.90;;;;;;4999127;28;20038;-72
2023/01/17 06:32:13;;;;;;;5.18;0.82;;;1.00;99.90;;;;;;5011051;28;20026;-72
2023/01/17 06:34:39;;;;;;;6.00;0.50;;;1.00;99.90;;;;;;5004769;28;20225;-72
2023/01/17 06:37:05;;;;;;;5.70;0.73;;;1.00;99.90;;;;;;5003384;28;20494;-72
2023/01/17 06:39:31;;;;;;;4.10;0.82;;;1.00;99.90;;;;;;5009848;28;20041;-71
2023/01/17 06:41:57;;;;;;;5.00;0.82;;;0.90;99.90;;;;;;5024216;28;20034;-73
2023/01/17 06:44:22;;;;;;;6.40;0.30;;;0.90;99.90;;;;;;5007225;28;20046;-72
2023/01/17 06:46:48;;;;;;;4.30;0.70;;;0.90;99.90;;;;;;5007478;28;20172;-73
2023/01/17 06:49:14;;;;;;;4.38;0.57;;;0.90;99.90;;;;;;5009453;28;20049;-72
2023/01/17 06:51:39;;;;;;;5.13;0.40;;;0.90;99.90;;;;;;5010373;28;20048;-72
2023/01/17 06:54:05;;;;;;;2.30;0.40;;;0.90;99.90;;;;;;5010353;28;20084;-72
2023/01/17 06:56:32;;;;;;;2.88;0.50;;;0.90;99.90;;;;;;5011001;28;20042;-72
2023/01/17 06:58:58;;;;;;;3.40;0.50;;;0.80;99.90;;;;;;5004607;28;20030;-73
2023/01/17 07:01:23;;;;;;;4.75;0.77;;;0.80;99.90;;;;;;5010698;28;20050;-73
2023/01/17 07:03:51;;;;;;;12.05;1.58;;;0.80;99.90;;;;;;5009114;28;20018;-72
2023/01/17 07:06:17;;;;;;;4.88;1.00;;;0.80;99.90;;;;;;5007801;28;20030;-73
2023/01/17 07:08:42;;;;;;;1.30;0.50;;;0.80;99.90;;;;;;5007575;28;20030;-73
2023/01/17 07:11:08;;;;;;;2.75;0.43;;;0.80;99.90;;;;;;5007943;28;20030;-73
2023/01/17 07:13:36;;;;;;;7.40;0.57;;;0.80;99.90;;;;;;5007075;28;20037;-73
2023/01/17 07:16:02;;;;;;;6.63;0.77;;;0.80;99.90;;;;;;5007273;28;20086;-72
2023/01/17 07:18:29;;;;;;;4.07;0.55;;;0.80;99.90;;;;;;5008195;28;20045;-73
2023/01/17 07:20:54;;;;;;;10.15;1.25;;;0.80;99.90;;;;;;5022728;28;20116;-72
2023/01/17 07:23:21;;;;;;;4.07;0.95;;;0.80;99.90;;;;;;5006478;28;20446;-73
2023/01/17 07:25:55;;;;;;;4.80;0.98;;;0.80;99.90;;;;;;5010072;28;20120;-73
2023/01/17 07:28:21;;;;;;;6.18;0.60;;;0.80;99.90;;;;;;5007717;28;20512;-72
2023/01/17 07:30:47;;;;;;;4.43;0.80;;;0.80;99.90;;;;;;5007460;28;20037;-74
2023/01/17 07:33:13;;;;;;;15.38;2.38;;;0.80;99.90;;;;;;5009156;28;20038;-73
2023/01/17 07:35:39;;;;;;;7.72;0.73;;;0.80;99.90;;;;;;5007714;28;20033;-73
2023/01/17 07:38:13;;;;;;;6.50;0.50;;;0.80;99.90;;;;;;5006823;28;20482;-73
2023/01/17 07:40:39;;;;;;;10.10;1.35;;;0.80;99.90;;;;;;5003638;28;20109;-74
2023/01/17 07:43:14;;;;;;;2.85;0.70;;;0.80;99.90;;;;;;5006478;28;20105;-73
2023/01/17 07:45:49;;;;;;;4.65;0.73;;;0.80;99.90;;;;;;5003681;28;20034;-73
2023/01/17 07:48:15;;;;;;;6.90;1.30;;;0.70;99.90;;;;;;4995336;28;20087;-74
2023/01/17 07:50:41;;;;;;;5.75;0.63;;;0.80;99.90;;;;;;5006301;28;20034;-72
2023/01/17 07:53:06;;;;;;;7.88;0.90;;;0.70;99.90;;;;;;5007117;28;20541;-73
2023/01/17 07:55:32;;;;;;;5.38;0.88;;;0.70;99.90;;;;;;5013364;28;20034;-72
2023/01/17 07:57:57;;;;;;;9.00;1.13;;;0.70;99.90;;;;;;5003327;28;20034;-74
2023/01/17 08:00:26;;;;;;;3.13;0.73;;;0.70;99.90;;;;;;5007371;28;20038;-72
2023/01/17 08:02:56;;;;;;;4.72;1.08;;;0.70;99.90;;;;;;5004995;28;20034;-71
2023/01/17 08:05:22;;;;;;;3.95;0.40;;;0.70;99.90;;;;;;5003915;28;20483;-72
2023/01/17 08:07:47;;;;;;;11.60;0.95;;;0.70;99.90;;;;;;5006603;28;20406;-73
2023/01/17 08:10:16;;;;;;;9.75;1.13;;;0.70;99.90;;;;;;5006748;28;20038;-72
2023/01/17 08:12:46;;;;;;;4.85;0.77;;;0.70;99.90;;;;;;5005247;28;20030;-73
2023/01/17 08:15:17;;;;;;;6.23;0.87;;;0.70;99.90;;;;;;5005373;28;20076;-73
2023/01/17 08:17:52;;;;;;;1.25;0.52;;;0.70;99.90;;;;;;4997279;28;20372;-74
2023/01/17 08:20:19;;;;;;;7.07;0.60;;;0.70;99.90;;;;;;5022468;28;20034;-72
2023/01/17 08:22:45;;;;;;;3.20;0.80;;;0.70;99.90;;;;;;5004972;28;20494;-73
2023/01/17 08:25:11;;;;;;;6.13;0.82;;;0.70;99.90;;;;;;5006196;28;20025;-72
2023/01/17 08:27:37;;;;;;;6.47;0.82;;;0.70;99.90;;;;;;5020885;28;20026;-73
2023/01/17 08:30:04;;;;;;;4.68;0.68;;;0.70;99.90;;;;;;4998228;28;20137;-73
2023/01/17 08:32:30;;;;;;;4.45;0.77;;;0.70;99.90;;;;;;5005680;28;20050;-73
2023/01/17 08:34:56;;;;;;;4.00;0.73;;;0.70;99.90;;;;;;5003167;28;20073;-73
2023/01/17 08:37:21;;;;;;;4.05;1.02;;;0.70;99.90;;;;;;5005590;28;20109;-72
2023/01/17 08:39:47;;;;;;;6.43;0.85;;;0.70;99.90;;;;;;5013194;28;20412;-72
2023/01/17 08:42:13;;;;;;;11.10;1.40;;;0.70;99.90;;;;;;5006062;28;20417;-73
2023/01/17 08:44:38;;;;;;;5.78;0.80;;;0.70;99.90;;;;;;5020990;28;20034;-72
2023/01/17 08:47:04;;;;;;;6.53;0.95;;;0.70;99.90;;;;;;5004693;28;20061;-72
2023/01/17 08:49:30;;;;;;;1.77;0.57;;;0.70;99.90;;;;;;5015310;28;20062;-73
2023/01/17 08:51:56;;;;;;;3.35;0.68;;;0.70;99.90;;;;;;5003973;28;20096;-72
2023/01/17 08:54:23;;;;;;;4.68;1.30;;;0.70;99.90;;;;;;5005682;28;20518;-72
2023/01/17 08:56:49;;;;;;;5.43;0.90;;;0.70;99.90;;;;;;4998558;28;20116;-72
2023/01/17 08:59:14;;;;;;;1.58;0.90;;;0.70;99.90;;;;;;5002759;28;20036;-72
2023/01/17 09:01:40;;;;;;;8.52;0.80;;;0.70;99.90;;;;;;5002258;28;20406;-73
2023/01/17 09:04:10;;;;;;;6.75;0.98;;;0.70;99.90;;;;;;5001340;28;20049;-72
2023/01/17 09:06:41;;;;;;;1.80;0.68;;;0.80;99.90;;;;;;5005692;28;20041;-73
2023/01/17 09:09:07;;;;;;;;;;;0.80;99.90;;;;;;5006440;28;20787;-73
2023/01/17 09:11:33;;;;;;;2.97;0.85;;;0.80;99.90;;;;;;4997263;28;19939;-72
2023/01/17 09:14:00;;;;;;;4.07;0.43;;;0.90;99.90;;;;;;5019933;28;20677;-73
2023/01/17 09:16:26;;;;;;;2.83;1.00;;;0.90;99.90;;;;;;5001791;28;20954;-74
2023/01/17 09:18:54;;;;;;;1.13;0.30;;;0.90;99.90;;;;;;4996307;28;20034;-74
2023/01/17 09:21:20;;;;;;;4.32;0.60;;;1.00;99.90;;;;;;5000609;28;20458;-73
2023/01/17 09:23:45;;;;;;;4.78;0.80;;;1.10;99.90;;;;;;5007470;28;20029;-73
2023/01/17 09:26:19;;;;;;;4.05;0.77;;;1.20;99.90;;;;;;5002335;28;20088;-72
2023/01/17 09:28:45;;;;;;;4.38;1.00;;;1.30;99.90;;;;;;5000266;28;20030;-73
2023/01/17 09:31:10;;;;;;;4.82;1.13;;;1.30;99.90;;;;;;5005238;28;20442;-73
2023/01/17 09:33:36;;;;;;;3.42;0.68;;;1.40;99.90;;;;;;4999399;28;20030;-73
2023/01/17 09:36:04;;;;;;;7.35;1.60;;;1.40;99.90;;;;;;4998584;28;20026;-73
2023/01/17 09:38:30;;;;;;;2.30;0.77;;;1.50;99.90;;;;;;5013100;28;20876;-73
2023/01/17 09:40:57;;;;;;;3.00;1.08;;;1.50;99.90;;;;;;4995240;28;20431;-73
2023/01/17 09:43:34;;;;;;;1.60;0.50;;;1.60;99.90;;;;;;4998998;28;20041;-72
2023/01/17 09:46:00;;;;;;;1.58;0.60;;;1.60;99.90;;;;;;4994343;28;20124;-73
2023/01/17 09:48:38;;;;;;;2.30;0.93;;;1.60;99.90;;;;;;5015104;28;20065;-72
2023/01/17 09:51:24;;;;;;;1.88;0.63;;;1.70;99.90;;;;;;4999980;28;20136;-72
2023/01/17 09:53:51;;;;;;;1.95;0.50;;;1.70;99.90;;;;;;4999348;28;20445;-73
2023/01/17 09:56:26;;;;;;;0.93;0.52;;;1.80;99.90;;;;;;4998900;28;20026;-73
2023/01/17 09:59:28;;;;;;;3.17;0.85;;;1.80;99.90;;;;;;5000884;28;20129;-72
2023/01/17 10:02:16;;;;;;;3.40;0.98;;;1.90;99.90;;;;;;5004322;28;20053;-75
2023/01/17 10:04:57;;;;;;;6.50;1.20;;;1.90;99.90;;;;;;5010336;28;20773;-73
2023/01/17 10:07:50;;;;;;;2.75;0.73;;;2.00;99.90;;;;;;4999056;28;20528;-73
2023/01/17 10:10:54;;;;;;;3.47;1.08;;;2.00;99.90;;;;;;5002122;28;20033;-73
2023/01/17 10:13:39;;;;;;;5.38;0.95;;;2.10;99.90;;;;;;4972128;28;20077;-73
2023/01/17 10:16:26;;;;;;;5.63;1.50;;;2.10;99.90;;;;;;4994726;28;20034;-71
2023/01/17 10:19:33;;;;;;;4.82;1.55;;;2.10;99.90;;;;;;5004549;28;20041;-73
2023/01/17 10:22:32;;;;;;;4.68;1.13;;;2.10;99.90;;;;;;4993992;28;20048;-73
2023/01/17 10:25:35;;;;;;;3.50;1.23;;;2.10;99.90;;;;;;5000244;28;20109;-73
2023/01/17 10:28:15;;;;;;;6.60;1.42;;;2.10;99.90;;;;;;5002663;28;20409;-74
2023/01/17 10:31:06;;;;;;;1.38;0.75;;;2.10;99.90;;;;;;5003849;28;20371;-75
2023/01/17 10:33:38;;;;;;;6.32;1.10;;;2.00;99.90;;;;;;4997977;28;20037;-72
2023/01/17 10:36:14;;;;;;;6.10;1.52;;;2.00;99.90;;;;;;5013776;28;20034;-73
2023/01/17 10:38:45;;;;;;;3.80;0.73;;;2.00;99.90;;;;;;5003962;28;20030;-72
2023/01/17 10:41:30;;;;;;;3.50;1.30;;;2.00;99.90;;;;;;4994694;28;20518;-73
2023/01/17 10:44:24;;;;;;;5.40;1.40;;;2.00;99.90;;;;;;5010819;28;20046;-73
2023/01/17 10:47:13;;;;;;;8.60;1.60;;;2.10;99.90;;;;;;4996566;28;20042;-72
2023/01/17 10:49:43;;;;;;;4.90;1.40;;;2.10;99.90;;;;;;4996487;28;20110;-73
2023/01/17 10:52:12;;;;;;;3.88;1.35;;;2.20;99.90;;;;;;4988262;28;20030;-73
2023/01/17 10:54:40;;;;;;;5.72;1.30;;;2.20;99.90;;;;;;4999966;28;20042;-73
2023/01/17 10:57:14;;;;;;;4.10;1.20;;;2.20;99.90;;;;;;5005864;28;20045;-73
2023/01/17 10:59:40;;;;;;;6.72;1.52;;;2.20;99.90;;;;;;5002370;28;20398;-74
2023/01/17 11:02:38;;;;;;;3.90;1.92;;;2.20;99.90;;;;;;4999040;28;20060;-72
2023/01/17 11:05:21;;;;;;;6.97;1.52;;;2.20;99.90;;;;;;5002839;28;20038;-73
2023/01/17 11:08:03;;;;;;;9.95;1.98;;;2.20;99.90;;;;;;5004197;28;20045;-72
2023/01/17 11:10:41;;;;;;;7.50;1.73;;;2.10;99.90;;;;;;5005645;28;20552;-72
2023/01/17 11:13:30;;;;;;;4.32;1.00;;;2.10;99.90;;;;;;5002059;28;20042;-71
2023/01/17 11:16:04;;;;;;;6.75;1.20;;;2.10;99.90;;;;;;5004515;28;20073;-73
2023/01/17 11:18:33;;;;;;;4.80;1.23;;;2.10;99.90;;;;;;5000224;28;20030;-73
2023/01/17 11:21:22;;;;;;;9.07;1.95;;;2.10;99.90;;;;;;5002236;28;20168;-73
2023/01/17 11:23:55;;;;;;;3.58;1.35;;;2.00;99.90;;;;;;5021018;28;20041;-71
2023/01/17 11:26:28;;;;;;;5.95;2.13;;;2.00;99.90;;;;;;5008127;28;20042;-72
2023/01/17 11:29:25;;;;;;;4.85;1.88;;;2.10;99.90;;;;;;5003054;28;20030;-72
2023/01/17 11:31:52;;;;;;;6.63;1.90;;;2.10;99.90;;;;;;4994650;28;20094;-73
2023/01/17 11:34:23;;;;;;;5.63;1.88;;;2.20;99.90;;;;;;4996506;28;20042;-72
2023/01/17 11:37:16;;;;;;;5.72;1.70;;;2.40;99.90;;;;;;4995423;28;20113;-75
2023/01/17 11:39:41;;;;;;;7.63;2.05;;;2.70;99.90;;;;;;5002011;28;20042;-73
2023/01/17 11:42:34;;;;;;;10.75;2.75;;;2.70;99.90;;;;;;5004354;28;20034;-75
2023/01/17 11:45:26;;;;;;;6.10;1.98;;;2.70;99.90;;;;;;5001043;28;20088;-74
2023/01/17 11:48:07;;;;;;;7.25;2.25;;;2.70;99.90;;;;;;4996394;28;20034;-74
2023/01/17 11:50:33;;;;;;;;;;;2.60;99.90;;;;;;5003142;28;20515;-74
2023/01/17 11:53:16;;;;;;;8.52;2.35;;;2.60;99.90;;;;;;4999681;28;19917;-74
2023/01/17 11:56:18;;;;;;;7.47;2.63;;;2.70;99.90;;;;;;5001064;28;20106;-76
2023/01/17 11:58:46;;;;;;;6.03;1.83;;;2.70;99.90;;;;;;5008259;28;20038;-75
2023/01/17 12:01:40;;;;;;;7.20;1.77;;;2.70;99.90;;;;;;5007920;28;20036;-74
2023/01/17 12:04:18;;;;;;;6.85;1.40;;;2.80;99.90;;;;;;4998711;28;20211;-74
2023/01/17 12:07:07;;;;;;;8.45;1.73;;;2.80;99.90;;;;;;5000102;28;20104;-74
2023/01/17 12:10:10;;;;;;;7.93;2.27;;;2.80;99.90;;;;;;5002829;28;20308;-76
2023/01/17 12:19:02;;;;;;;2.80;1.23;;;2.90;99.90;;;;;;5001717;28;20033;-73
2023/01/17 12:21:36;;;;;;;5.82;1.48;;;3.00;99.90;;;;;;5003211;28;20037;-74
2023/01/17 12:24:20;;;;;;;4.43;1.40;;;3.00;99.90;;;;;;5003499;28;20490;-74
2023/01/17 12:27:07;;;;;;;3.97;1.50;;;3.00;99.90;;;;;;5001942;28;20037;-74
2023/01/17 12:29:46;;;;;;;3.90;1.25;;;3.00;99.90;;;;;;5013123;28;20038;-75
2023/01/17 12:32:49;;;;;;;5.32;1.10;;;3.00;99.90;;;;;;4999078;28;20034;-75
2023/01/17 12:35:24;;;;;;;4.38;0.90;;;3.10;99.90;;;;;;4999925;28;20068;-74
2023/01/17 12:37:57;;;;;;;2.30;0.98;;;3.10;99.90;;;;;;5001017;28;20034;-75
2023/01/17 12:40:35;;;;;;;6.07;1.30;;;3.20;99.90;;;;;;5002340;28;20133;-73
2023/01/17 12:43:11;;;;;;;5.10;1.20;;;3.20;99.90;;;;;;5002326;28;20034;-73
2023/01/17 12:45:44;;;;;;;4.00;1.17;;;3.20;99.90;;;;;;5015761;28;20038;-74
2023/01/17 12:48:15;;;;;;;3.58;1.15;;;3.20;99.90;;;;;;4986298;28;20350;-73
2023/01/17 12:50:47;;;;;;;3.17;1.45;;;3.20;99.90;;;;;;4989998;28;20057;-74
2023/01/17 12:53:43;;;;;;;4.72;1.13;;;3.30;99.90;;;;;;4999344;28;20113;-73
2023/01/17 12:56:22;;;;;;;2.25;0.85;;;3.30;99.90;;;;;;5002058;28;20034;-73
2023/01/17 12:58:54;;;;;;;6.18;1.33;;;3.30;99.90;;;;;;5002919;28;20048;-75
2023/01/17 13:01:30;;;;;;;2.33;0.80;;;3.30;99.90;;;;;;4999285;28;20072;-74
2023/01/17 13:04:10;;;;;;;2.35;0.75;;;3.30;99.90;;;;;;5003279;28;20026;-75
2023/01/17 13:06:57;;;;;;;4.07;0.90;;;3.30;99.90;;;;;;4996558;28;20031;-75
2023/01/17 13:09:23;;;;;;;1.63;0.70;;;3.30;99.90;;;;;;4993742;28;20046;-74
2023/01/17 13:12:11;;;;;;;2.13;0.80;;;3.30;99.90;;;;;;4998129;28;20046;-74
2023/01/17 13:14:37;;;;;;;5.85;0.73;;;3.30;99.90;;;;;;5004167;28;20446;-74
2023/01/17 13:17:21;;;;;;;2.88;0.57;;;3.30;99.90;;;;;;4998285;28;20031;-74
2023/01/17 13:20:27;;;;;;;5.88;1.42;;;3.30;99.90;;;;;;5002622;28;20053;-74
2023/01/17 13:22:59;;;;;;;4.75;0.73;;;3.30;99.90;;;;;;4993200;28;20041;-72
2023/01/17 13:25:49;;;;;;;2.85;0.68;;;3.30;99.90;;;;;;5000537;28;20062;-71
2023/01/17 13:28:29;;;;;;;2.95;0.68;;;3.30;99.90;;;;;;5000457;28;20052;-73
2023/01/17 13:31:05;;;;;;;3.72;0.70;;;3.30;99.90;;;;;;5013474;28;20029;-72
2023/01/17 13:33:46;;;;;;;4.28;1.25;;;3.30;99.90;;;;;;4996195;28;20050;-73
2023/01/17 13:36:17;;;;;;;3.10;0.70;;;3.30;99.90;;;;;;4998344;28;20481;-72
2023/01/17 13:38:54;;;;;;;2.70;0.63;;;3.30;99.90;;;;;;5000125;28;20073;-73
2023/01/17 13:41:48;;;;;;;2.75;0.55;;;3.40;99.90;;;;;;5001870;28;20068;-73
2023/01/17 13:44:20;;;;;;;2.58;0.47;;;3.40;99.90;;;;;;4996061;28;20505;-73
2023/01/17 13:47:00;;;;;;;1.60;0.60;;;3.40;99.90;;;;;;4994516;28;20057;-72
2023/01/17 13:49:29;;;;;;;5.03;0.60;;;3.40;99.90;;;;;;4999270;28;20153;-73
2023/01/17 13:52:02;;;;;;;5.18;0.73;;;3.40;99.90;;;;;;4983722;28;20721;-74
2023/01/17 13:54:32;;;;;;;4.70;0.98;;;3.40;99.90;;;;;;4986321;28;20046;-74
2023/01/17 13:57:24;;;;;;;1.48;0.70;;;3.40;99.90;;;;;;4983589;28;20042;-73
2023/01/17 13:59:51;;;;;;;3.53;0.75;;;3.40;99.90;;;;;;4998213;28;20047;-74
2023/01/17 14:02:32;;;;;;;4.45;1.70;;;3.40;99.90;;;;;;4984891;28;20663;-73
2023/01/17 14:05:13;;;;;;;4.22;1.13;;;3.40;99.90;;;;;;4999776;28;20034;-73
2023/01/17 14:07:58;;;;;;;4.28;0.65;;;3.40;99.90;;;;;;4991958;28;20057;-73
2023/01/17 14:10:51;;;;;;;5.22;0.93;;;3.50;99.90;;;;;;4996632;28;20034;-71
2023/01/17 14:13:35;;;;;;;1.67;0.63;;;3.50;99.90;;;;;;4994789;28;20033;-73
2023/01/17 14:16:04;;;;;;;3.35;0.80;;;3.50;99.90;;;;;;4995125;28;20041;-74
2023/01/17 14:18:41;;;;;;;2.92;1.05;;;3.40;99.90;;;;;;4999357;28;20031;-74
2023/01/17 14:21:10;;;;;;;4.47;0.90;;;3.40;99.90;;;;;;4998501;28;20157;-73
2023/01/17 14:24:07;;;;;;;3.40;0.60;;;3.40;99.90;;;;;;5004299;28;20035;-73
2023/01/17 14:26:41;;;;;;;1.75;0.63;;;3.40;99.90;;;;;;4992213;28;20443;-72
2023/01/17 14:29:41;;;;;;;3.97;0.68;;;3.30;99.90;;;;;;5005490;28;21074;-73
2023/01/17 14:32:14;;;;;;;2.45;0.70;;;3.30;99.90;;;;;;5003252;28;20212;-73
2023/01/17 14:34:43;;;;;;;7.55;2.17;;;3.30;99.90;;;;;;5012695;28;20038;-73
2023/01/17 14:37:31;;;;;;;4.10;1.05;;;3.20;99.90;;;;;;5008749;28;20057;-73
2023/01/17 14:39:58;;;;;;;3.30;0.82;;;3.20;99.90;;;;;;4998582;28;20041;-75
2023/01/17 14:42:27;;;;;;;0.75;0.52;;;3.20;99.90;;;;;;5005373;28;20048;-74
2023/01/17 14:45:08;;;;;;;1.90;0.82;;;3.20;99.90;;;;;;5003009;28;20041;-74
2023/01/17 14:47:38;;;;;;;4.32;0.35;;;3.10;99.90;;;;;;5005360;28;20132;-73
2023/01/17 14:50:21;;;;;;;1.40;0.45;;;3.10;99.90;;;;;;5000806;28;20037;-73
2023/01/17 14:52:47;;;;;;;0.65;0.25;;;3.10;99.90;;;;;;5003339;28;20040;-72